sensor_id;sensor_type;location;lat;lon;timestamp;P1;P2;P0
65574;PMS5003;52216;54.942;73.394;2022-08-21T00:02:24;13.00;8.00;5.00
65574;PMS5003;52216;54.942;73.394;2022-08-21T00:05:38;10.00;6.00;3.00
65574;PMS5003;52216;54.942;73.394;2022-08-21T00:08:42;10.00;6.75;3.25
65574;PMS5003;52216;54.942;73.394;2022-08-21T00:11:44;13.00;8.67;4.00
65574;PMS5003;52216;54.942;73.394;2022-08-21T00:14:57;14.50;11.00;5.00
65574;PMS5003;52216;54.942;73.394;2022-08-21T00:18:00;16.00;10.00;6.00
65574;PMS5003;52216;54.942;73.394;2022-08-21T00:21:04;15.00;13.75;5.75
65574;PMS5003;52216;54.942;73.394;2022-08-21T00:24:05;13.00;9.25;4.00
65574;PMS5003;52216;54.942;73.394;2022-08-21T00:27:14;12.25;10.00;4.00
65574;PMS5003;52216;54.942;73.394;2022-08-21T00:30:20;11.25;8.00;4.00
65574;PMS5003;52216;54.942;73.394;2022-08-21T00:33:24;11.00;7.00;3.25
65574;PMS5003;52216;54.942;73.394;2022-08-21T00:36:26;11.25;9.25;3.00
65574;PMS5003;52216;54.942;73.394;2022-08-21T00:39:33;7.67;7.00;4.00
65574;PMS5003;52216;54.942;73.394;2022-08-21T00:42:36;7.00;7.00;4.00
65574;PMS5003;52216;54.942;73.394;2022-08-21T00:45:38;7.00;7.00;2.50
65574;PMS5003;52216;54.942;73.394;2022-08-21T00:48:40;8.00;7.00;4.00
65574;PMS5003;52216;54.942;73.394;2022-08-21T00:51:55;7.00;5.75;2.75
65574;PMS5003;52216;54.942;73.394;2022-08-21T00:55:01;7.50;7.50;3.00
65574;PMS5003;52216;54.942;73.394;2022-08-21T00:58:05;10.25;7.00;2.00
65574;PMS5003;52216;54.942;73.394;2022-08-21T01:01:18;9.00;7.00;4.00
65574;PMS5003;52216;54.942;73.394;2022-08-21T01:04:30;8.00;7.00;3.00
65574;PMS5003;52216;54.942;73.394;2022-08-21T01:07:32;7.50;7.00;3.00
65574;PMS5003;52216;54.942;73.394;2022-08-21T01:10:35;7.00;7.00;3.00
65574;PMS5003;52216;54.942;73.394;2022-08-21T01:13:47;7.00;6.75;2.00
65574;PMS5003;52216;54.942;73.394;2022-08-21T01:16:55;9.00;8.00;2.00
65574;PMS5003;52216;54.942;73.394;2022-08-21T01:19:59;7.25;6.50;3.00
65574;PMS5003;52216;54.942;73.394;2022-08-21T01:23:02;8.00;8.00;3.00
65574;PMS5003;52216;54.942;73.394;2022-08-21T01:26:11;8.25;8.00;3.00
65574;PMS5003;52216;54.942;73.394;2022-08-21T01:29:41;7.25;6.00;2.00
65574;PMS5003;52216;54.942;73.394;2022-08-21T01:32:44;8.25;7.00;3.00
65574;PMS5003;52216;54.942;73.394;2022-08-21T01:35:57;7.00;7.00;3.00
65574;PMS5003;52216;54.942;73.394;2022-08-21T01:39:09;11.00;9.00;4.00
65574;PMS5003;52216;54.942;73.394;2022-08-21T01:42:11;7.50;7.00;3.00
65574;PMS5003;52216;54.942;73.394;2022-08-21T01:45:15;9.00;8.00;3.00
65574;PMS5003;52216;54.942;73.394;2022-08-21T01:48:18;7.50;6.50;3.00
65574;PMS5003;52216;54.942;73.394;2022-08-21T01:51:20;9.00;9.00;4.00
65574;PMS5003;52216;54.942;73.394;2022-08-21T01:54:33;10.00;8.50;4.25
65574;PMS5003;52216;54.942;73.394;2022-08-21T01:57:36;8.00;7.00;4.00
65574;PMS5003;52216;54.942;73.394;2022-08-21T02:00:38;8.00;8.00;3.00
65574;PMS5003;52216;54.942;73.394;2022-08-21T02:03:40;8.00;7.00;3.00
65574;PMS5003;52216;54.942;73.394;2022-08-21T02:06:44;8.25;6.25;3.00
65574;PMS5003;52216;54.942;73.394;2022-08-21T02:09:47;7.00;6.00;2.25
65574;PMS5003;52216;54.942;73.394;2022-08-21T02:12:50;6.00;6.00;2.00
65574;PMS5003;52216;54.942;73.394;2022-08-21T02:15:58;7.50;6.50;1.50
65574;PMS5003;52216;54.942;73.394;2022-08-21T02:19:02;9.00;7.00;3.00
65574;PMS5003;52216;54.942;73.394;2022-08-21T02:22:04;8.00;8.00;3.00
65574;PMS5003;52216;54.942;73.394;2022-08-21T02:25:06;9.75;8.25;3.00
65574;PMS5003;52216;54.942;73.394;2022-08-21T02:28:15;6.00;6.00;3.00
65574;PMS5003;52216;54.942;73.394;2022-08-21T02:31:21;7.25;7.00;3.00
65574;PMS5003;52216;54.942;73.394;2022-08-21T02:34:23;7.00;7.00;3.00
65574;PMS5003;52216;54.942;73.394;2022-08-21T02:37:26;5.75;5.75;2.00
65574;PMS5003;52216;54.942;73.394;2022-08-21T02:40:31;7.25;7.25;3.00
65574;PMS5003;52216;54.942;73.394;2022-08-21T02:43:35;6.00;6.00;3.00
65574;PMS5003;52216;54.942;73.394;2022-08-21T02:46:38;4.50;4.50;2.00
65574;PMS5003;52216;54.942;73.394;2022-08-21T02:49:41;5.00;4.00;1.00
65574;PMS5003;52216;54.942;73.394;2022-08-21T02:52:45;5.25;5.25;2.00
65574;PMS5003;52216;54.942;73.394;2022-08-21T02:55:49;6.00;5.00;3.00
65574;PMS5003;52216;54.942;73.394;2022-08-21T02:58:53;6.00;5.00;2.00
65574;PMS5003;52216;54.942;73.394;2022-08-21T03:01:56;6.00;5.25;3.00
65574;PMS5003;52216;54.942;73.394;2022-08-21T03:04:59;6.00;5.00;2.75
65574;PMS5003;52216;54.942;73.394;2022-08-21T03:08:03;6.00;5.00;1.00
65574;PMS5003;52216;54.942;73.394;2022-08-21T03:11:06;7.00;6.67;2.00
65574;PMS5003;52216;54.942;73.394;2022-08-21T03:14:08;6.00;6.00;2.00
65574;PMS5003;52216;54.942;73.394;2022-08-21T03:17:12;8.00;6.50;2.75
65574;PMS5003;52216;54.942;73.394;2022-08-21T03:20:26;6.00;5.50;2.00
65574;PMS5003;52216;54.942;73.394;2022-08-21T03:23:39;4.00;4.00;2.00
65574;PMS5003;52216;54.942;73.394;2022-08-21T03:26:44;5.75;4.75;1.00
65574;PMS5003;52216;54.942;73.394;2022-08-21T03:29:57;7.00;7.00;2.50
65574;PMS5003;52216;54.942;73.394;2022-08-21T03:33:00;6.00;5.25;2.00
65574;PMS5003;52216;54.942;73.394;2022-08-21T03:36:04;7.25;6.50;3.00
65574;PMS5003;52216;54.942;73.394;2022-08-21T03:39:07;8.67;8.33;4.00
65574;PMS5003;52216;54.942;73.394;2022-08-21T03:42:19;7.00;7.00;3.00
65574;PMS5003;52216;54.942;73.394;2022-08-21T03:45:28;9.00;8.00;2.00
65574;PMS5003;52216;54.942;73.394;2022-08-21T03:48:30;6.00;6.00;3.00
65574;PMS5003;52216;54.942;73.394;2022-08-21T03:51:34;8.00;8.00;3.00
65574;PMS5003;52216;54.942;73.394;2022-08-21T03:54:42;7.00;7.00;3.00
65574;PMS5003;52216;54.942;73.394;2022-08-21T03:57:44;5.25;5.25;2.00
65574;PMS5003;52216;54.942;73.394;2022-08-21T04:00:57;8.50;6.00;2.25
65574;PMS5003;52216;54.942;73.394;2022-08-21T04:04:11;7.50;7.00;2.00
65574;PMS5003;52216;54.942;73.394;2022-08-21T04:07:24;6.75;6.75;2.00
65574;PMS5003;52216;54.942;73.394;2022-08-21T04:10:29;5.75;5.00;2.00
65574;PMS5003;52216;54.942;73.394;2022-08-21T04:13:37;8.50;7.75;4.00
65574;PMS5003;52216;54.942;73.394;2022-08-21T04:16:40;8.50;8.00;3.00
65574;PMS5003;52216;54.942;73.394;2022-08-21T04:19:42;8.00;7.00;3.00
65574;PMS5003;52216;54.942;73.394;2022-08-21T04:22:50;8.00;7.00;3.00
65574;PMS5003;52216;54.942;73.394;2022-08-21T04:25:54;9.75;9.00;3.00
65574;PMS5003;52216;54.942;73.394;2022-08-21T04:28:58;10.00;9.00;3.00
65574;PMS5003;52216;54.942;73.394;2022-08-21T04:32:05;9.00;9.00;4.00
65574;PMS5003;52216;54.942;73.394;2022-08-21T04:35:14;12.00;10.00;4.00
65574;PMS5003;52216;54.942;73.394;2022-08-21T04:38:27;12.50;10.00;5.00
65574;PMS5003;52216;54.942;73.394;2022-08-21T04:41:29;11.67;9.00;4.00
65574;PMS5003;52216;54.942;73.394;2022-08-21T04:44:31;11.00;8.00;3.00
65574;PMS5003;52216;54.942;73.394;2022-08-21T04:47:34;9.00;8.00;4.50
65574;PMS5003;52216;54.942;73.394;2022-08-21T04:50:39;10.00;8.00;4.00
65574;PMS5003;52216;54.942;73.394;2022-08-21T04:53:44;9.00;7.50;3.25
65574;PMS5003;52216;54.942;73.394;2022-08-21T04:56:51;8.00;7.00;3.00
65574;PMS5003;52216;54.942;73.394;2022-08-21T04:59:54;9.00;8.50;3.00
65574;PMS5003;52216;54.942;73.394;2022-08-21T05:03:06;7.50;7.50;3.50
65574;PMS5003;52216;54.942;73.394;2022-08-21T05:06:09;11.00;9.00;4.00
65574;PMS5003;52216;54.942;73.394;2022-08-21T05:09:12;8.75;8.75;3.00
65574;PMS5003;52216;54.942;73.394;2022-08-21T05:12:16;10.00;10.00;3.75
65574;PMS5003;52216;54.942;73.394;2022-08-21T05:15:24;10.25;9.25;4.00
65574;PMS5003;52216;54.942;73.394;2022-08-21T05:18:43;10.00;9.00;4.00
65574;PMS5003;52216;54.942;73.394;2022-08-21T05:21:46;10.25;8.75;4.25
65574;PMS5003;52216;54.942;73.394;2022-08-21T05:24:49;13.00;10.33;6.00
65574;PMS5003;52216;54.942;73.394;2022-08-21T05:27:53;13.00;11.00;5.00
65574;PMS5003;52216;54.942;73.394;2022-08-21T05:31:00;13.75;11.75;4.00
65574;PMS5003;52216;54.942;73.394;2022-08-21T05:34:02;17.00;13.50;5.00
65574;PMS5003;52216;54.942;73.394;2022-08-21T05:37:05;15.00;13.00;5.00
65574;PMS5003;52216;54.942;73.394;2022-08-21T05:40:07;16.50;12.00;5.00
65574;PMS5003;52216;54.942;73.394;2022-08-21T05:43:10;15.50;12.00;6.00
65574;PMS5003;52216;54.942;73.394;2022-08-21T05:46:12;15.00;12.00;6.00
65574;PMS5003;52216;54.942;73.394;2022-08-21T05:49:24;18.00;16.00;4.00
65574;PMS5003;52216;54.942;73.394;2022-08-21T05:52:26;18.00;17.00;4.50
65574;PMS5003;52216;54.942;73.394;2022-08-21T05:55:28;17.00;14.00;4.00
65574;PMS5003;52216;54.942;73.394;2022-08-21T05:58:31;15.50;11.50;4.00
65574;PMS5003;52216;54.942;73.394;2022-08-21T06:01:34;13.00;11.33;5.00
65574;PMS5003;52216;54.942;73.394;2022-08-21T06:04:38;12.50;12.50;4.25
65574;PMS5003;52216;54.942;73.394;2022-08-21T06:07:50;11.00;11.00;6.00
65574;PMS5003;52216;54.942;73.394;2022-08-21T06:10:53;12.00;11.00;4.75
65574;PMS5003;52216;54.942;73.394;2022-08-21T06:13:56;14.00;13.75;5.00
65574;PMS5003;52216;54.942;73.394;2022-08-21T06:17:02;14.00;12.00;5.00
65574;PMS5003;52216;54.942;73.394;2022-08-21T06:20:06;13.75;12.00;5.00
65574;PMS5003;52216;54.942;73.394;2022-08-21T06:23:08;13.00;11.00;5.00
65574;PMS5003;52216;54.942;73.394;2022-08-21T06:26:11;9.00;8.00;3.50
65574;PMS5003;52216;54.942;73.394;2022-08-21T06:29:19;12.00;10.00;5.00
65574;PMS5003;52216;54.942;73.394;2022-08-21T06:32:21;10.25;9.00;3.00
65574;PMS5003;52216;54.942;73.394;2022-08-21T06:35:23;7.33;7.00;3.00
65574;PMS5003;52216;54.942;73.394;2022-08-21T06:38:30;5.00;5.00;2.00
65574;PMS5003;52216;54.942;73.394;2022-08-21T06:41:33;7.00;5.67;3.00
65574;PMS5003;52216;54.942;73.394;2022-08-21T06:44:35;4.50;4.00;3.00
65574;PMS5003;52216;54.942;73.394;2022-08-21T06:47:38;5.00;5.00;2.00
65574;PMS5003;52216;54.942;73.394;2022-08-21T06:50:41;5.00;5.00;2.00
65574;PMS5003;52216;54.942;73.394;2022-08-21T06:53:55;3.00;3.00;1.00
65574;PMS5003;52216;54.942;73.394;2022-08-21T06:56:58;3.00;3.00;1.00
65574;PMS5003;52216;54.942;73.394;2022-08-21T07:00:02;3.00;3.00;1.00
65574;PMS5003;52216;54.942;73.394;2022-08-21T07:03:06;2.00;2.00;0.00
65574;PMS5003;52216;54.942;73.394;2022-08-21T07:06:10;2.00;2.00;0.00
65574;PMS5003;52216;54.942;73.394;2022-08-21T07:09:13;1.00;1.00;0.00
65574;PMS5003;52216;54.942;73.394;2022-08-21T07:12:19;0.50;0.50;0.00
65574;PMS5003;52216;54.942;73.394;2022-08-21T07:15:22;0.00;0.00;0.00
65574;PMS5003;52216;54.942;73.394;2022-08-21T07:18:25;0.00;0.00;0.00
65574;PMS5003;52216;54.942;73.394;2022-08-21T07:21:28;0.00;0.00;0.00
65574;PMS5003;52216;54.942;73.394;2022-08-21T07:24:31;1.00;0.00;0.00
65574;PMS5003;52216;54.942;73.394;2022-08-21T07:27:35;1.00;0.00;0.00
65574;PMS5003;52216;54.942;73.394;2022-08-21T07:30:38;0.00;0.00;0.00
65574;PMS5003;52216;54.942;73.394;2022-08-21T07:33:41;0.00;0.00;0.00
65574;PMS5003;52216;54.942;73.394;2022-08-21T07:36:45;0.00;0.00;0.00
65574;PMS5003;52216;54.942;73.394;2022-08-21T07:39:49;0.00;0.00;0.00
65574;PMS5003;52216;54.942;73.394;2022-08-21T07:42:58;0.00;0.00;0.00
65574;PMS5003;52216;54.942;73.394;2022-08-21T07:46:01;0.00;0.00;0.00
65574;PMS5003;52216;54.942;73.394;2022-08-21T07:49:14;0.00;0.00;0.00
65574;PMS5003;52216;54.942;73.394;2022-08-21T07:52:19;0.00;0.00;0.00
65574;PMS5003;52216;54.942;73.394;2022-08-21T07:55:32;0.00;0.00;0.00
65574;PMS5003;52216;54.942;73.394;2022-08-21T07:58:35;0.00;0.00;0.00
65574;PMS5003;52216;54.942;73.394;2022-08-21T08:01:38;0.00;0.00;0.00
65574;PMS5003;52216;54.942;73.394;2022-08-21T08:04:41;0.00;0.00;0.00
65574;PMS5003;52216;54.942;73.394;2022-08-21T08:07:44;0.00;0.00;0.00
65574;PMS5003;52216;54.942;73.394;2022-08-21T08:10:57;0.00;0.00;0.00
65574;PMS5003;52216;54.942;73.394;2022-08-21T08:14:01;0.00;0.00;0.00
65574;PMS5003;52216;54.942;73.394;2022-08-21T08:17:06;0.00;0.00;0.00
65574;PMS5003;52216;54.942;73.394;2022-08-21T08:20:15;0.00;0.00;0.00
65574;PMS5003;52216;54.942;73.394;2022-08-21T08:23:19;0.00;0.00;0.00
65574;PMS5003;52216;54.942;73.394;2022-08-21T08:26:22;0.00;0.00;0.00
65574;PMS5003;52216;54.942;73.394;2022-08-21T08:29:25;0.00;0.00;0.00
65574;PMS5003;52216;54.942;73.394;2022-08-21T08:32:39;0.00;0.00;0.00
65574;PMS5003;52216;54.942;73.394;2022-08-21T08:35:48;0.00;0.00;0.00
65574;PMS5003;52216;54.942;73.394;2022-08-21T08:38:52;0.00;0.00;0.00
65574;PMS5003;52216;54.942;73.394;2022-08-21T08:42:14;0.00;0.00;0.00
65574;PMS5003;52216;54.942;73.394;2022-08-21T08:45:20;0.00;0.00;0.00
65574;PMS5003;52216;54.942;73.394;2022-08-21T08:55:22;0.00;0.00;0.00
65574;PMS5003;52216;54.942;73.394;2022-08-21T08:58:28;0.00;0.00;0.00
65574;PMS5003;52216;54.942;73.394;2022-08-21T09:01:35;0.00;0.00;0.00
65574;PMS5003;52216;54.942;73.394;2022-08-21T09:04:38;0.00;0.00;0.00
65574;PMS5003;52216;54.942;73.394;2022-08-21T09:10:52;0.00;0.00;0.00
65574;PMS5003;52216;54.942;73.394;2022-08-21T09:27:00;0.00;0.00;0.00
65574;PMS5003;52216;54.942;73.394;2022-08-21T09:30:16;0.00;0.00;0.00
65574;PMS5003;52216;54.942;73.394;2022-08-21T09:33:19;0.00;0.00;0.00
65574;PMS5003;52216;54.942;73.394;2022-08-21T09:36:31;0.00;0.00;0.00
65574;PMS5003;52216;54.942;73.394;2022-08-21T09:39:39;0.00;0.00;0.00
65574;PMS5003;52216;54.942;73.394;2022-08-21T09:42:53;0.00;0.00;0.00
65574;PMS5003;52216;54.942;73.394;2022-08-21T09:49:05;0.00;0.00;0.00
65574;PMS5003;52216;54.942;73.394;2022-08-21T09:52:16;0.00;0.00;0.00
65574;PMS5003;52216;54.942;73.394;2022-08-21T09:55:39;0.00;0.00;0.00
65574;PMS5003;52216;54.942;73.394;2022-08-21T09:59:25;0.00;0.00;0.00
65574;PMS5003;52216;54.942;73.394;2022-08-21T10:02:38;0.00;0.00;0.00
65574;PMS5003;52216;54.942;73.394;2022-08-21T10:05:50;0.00;0.00;0.00
65574;PMS5003;52216;54.942;73.394;2022-08-21T10:12:40;0.00;0.00;0.00
65574;PMS5003;52216;54.942;73.394;2022-08-21T10:28:44;0.00;0.00;0.00
65574;PMS5003;52216;54.942;73.394;2022-08-21T10:44:38;0.00;0.00;0.00
65574;PMS5003;52216;54.942;73.394;2022-08-21T10:47:57;0.25;0.00;0.00
65574;PMS5003;52216;54.942;73.394;2022-08-21T10:55:10;0.75;0.00;0.00
65574;PMS5003;52216;54.942;73.394;2022-08-21T10:58:11;2.00;1.00;0.00
65574;PMS5003;52216;54.942;73.394;2022-08-21T11:01:17;1.00;0.00;0.00
65574;PMS5003;52216;54.942;73.394;2022-08-21T11:04:25;1.00;0.00;0.00
65574;PMS5003;52216;54.942;73.394;2022-08-21T11:10:57;1.00;0.00;0.00
65574;PMS5003;52216;54.942;73.394;2022-08-21T11:14:18;1.00;0.00;0.00
65574;PMS5003;52216;54.942;73.394;2022-08-21T11:17:24;0.50;0.50;0.00
65574;PMS5003;52216;54.942;73.394;2022-08-21T11:20:34;1.00;0.00;0.00
65574;PMS5003;52216;54.942;73.394;2022-08-21T11:23:43;1.00;0.00;0.00
65574;PMS5003;52216;54.942;73.394;2022-08-21T11:26:59;1.00;1.00;0.00
65574;PMS5003;52216;54.942;73.394;2022-08-21T11:30:03;1.00;1.00;0.00
65574;PMS5003;52216;54.942;73.394;2022-08-21T11:39:52;1.00;1.00;0.00
65574;PMS5003;52216;54.942;73.394;2022-08-21T11:52:41;2.00;1.00;0.00
65574;PMS5003;52216;54.942;73.394;2022-08-21T11:55:49;0.00;0.00;0.00
65574;PMS5003;52216;54.942;73.394;2022-08-21T11:58:55;1.00;1.00;0.00
65574;PMS5003;52216;54.942;73.394;2022-08-21T12:01:59;1.00;1.00;0.00
65574;PMS5003;52216;54.942;73.394;2022-08-21T12:05:09;1.00;1.00;0.00
65574;PMS5003;52216;54.942;73.394;2022-08-21T12:08:26;1.00;1.00;0.00
65574;PMS5003;52216;54.942;73.394;2022-08-21T12:11:30;2.00;1.00;0.00
65574;PMS5003;52216;54.942;73.394;2022-08-21T12:14:38;3.00;1.00;0.00
65574;PMS5003;52216;54.942;73.394;2022-08-21T12:17:51;2.00;2.00;0.00
65574;PMS5003;52216;54.942;73.394;2022-08-21T12:21:00;2.00;2.00;0.00
65574;PMS5003;52216;54.942;73.394;2022-08-21T12:27:18;2.00;2.00;0.00
65574;PMS5003;52216;54.942;73.394;2022-08-21T12:33:32;1.00;1.00;0.00
65574;PMS5003;52216;54.942;73.394;2022-08-21T12:36:42;3.00;2.00;0.00
65574;PMS5003;52216;54.942;73.394;2022-08-21T12:39:46;2.00;1.00;0.00
65574;PMS5003;52216;54.942;73.394;2022-08-21T12:42:52;1.00;1.00;0.00
65574;PMS5003;52216;54.942;73.394;2022-08-21T12:45:56;2.00;2.00;0.00
65574;PMS5003;52216;54.942;73.394;2022-08-21T12:49:03;1.00;1.00;0.00
65574;PMS5003;52216;54.942;73.394;2022-08-21T12:55:32;2.25;1.75;0.00
65574;PMS5003;52216;54.942;73.394;2022-08-21T12:58:44;2.25;2.00;0.00
65574;PMS5003;52216;54.942;73.394;2022-08-21T13:01:49;1.00;1.00;0.00
65574;PMS5003;52216;54.942;73.394;2022-08-21T13:04:54;0.00;0.00;0.00
65574;PMS5003;52216;54.942;73.394;2022-08-21T13:07:59;2.00;1.00;0.00
65574;PMS5003;52216;54.942;73.394;2022-08-21T13:11:05;0.00;0.00;0.00
65574;PMS5003;52216;54.942;73.394;2022-08-21T13:14:19;2.00;1.00;0.00
65574;PMS5003;52216;54.942;73.394;2022-08-21T13:17:24;3.00;2.50;0.00
65574;PMS5003;52216;54.942;73.394;2022-08-21T13:20:29;1.00;1.00;0.00
65574;PMS5003;52216;54.942;73.394;2022-08-21T13:23:32;0.00;0.00;0.00
65574;PMS5003;52216;54.942;73.394;2022-08-21T13:26:35;2.00;2.00;0.00
65574;PMS5003;52216;54.942;73.394;2022-08-21T13:29:39;2.00;2.00;0.00
65574;PMS5003;52216;54.942;73.394;2022-08-21T13:32:51;2.00;2.00;0.00
65574;PMS5003;52216;54.942;73.394;2022-08-21T13:36:03;0.00;0.00;0.00
65574;PMS5003;52216;54.942;73.394;2022-08-21T13:39:08;2.00;2.00;0.00
65574;PMS5003;52216;54.942;73.394;2022-08-21T13:42:12;2.00;1.00;0.00
65574;PMS5003;52216;54.942;73.394;2022-08-21T13:45:18;1.00;1.00;0.00
65574;PMS5003;52216;54.942;73.394;2022-08-21T13:48:38;3.00;2.00;0.00
65574;PMS5003;52216;54.942;73.394;2022-08-21T13:51:45;2.25;2.00;0.00
65574;PMS5003;52216;54.942;73.394;2022-08-21T13:54:56;1.00;1.00;0.00
65574;PMS5003;52216;54.942;73.394;2022-08-21T13:58:00;1.50;1.50;0.00
65574;PMS5003;52216;54.942;73.394;2022-08-21T14:01:03;2.00;2.00;0.00
65574;PMS5003;52216;54.942;73.394;2022-08-21T14:04:07;3.00;3.00;0.00
65574;PMS5003;52216;54.942;73.394;2022-08-21T14:07:24;3.00;2.00;0.00
65574;PMS5003;52216;54.942;73.394;2022-08-21T14:10:28;3.75;3.75;0.00
65574;PMS5003;52216;54.942;73.394;2022-08-21T14:16:44;3.00;2.00;0.00
65574;PMS5003;52216;54.942;73.394;2022-08-21T14:19:48;2.00;1.00;0.00
65574;PMS5003;52216;54.942;73.394;2022-08-21T14:22:55;1.00;0.00;0.00
65574;PMS5003;52216;54.942;73.394;2022-08-21T14:25:59;1.75;1.50;0.00
65574;PMS5003;52216;54.942;73.394;2022-08-21T14:29:05;1.00;1.00;0.00
65574;PMS5003;52216;54.942;73.394;2022-08-21T14:32:16;2.00;1.00;0.00
65574;PMS5003;52216;54.942;73.394;2022-08-21T14:35:22;3.25;2.00;0.00
65574;PMS5003;52216;54.942;73.394;2022-08-21T14:38:36;3.00;3.00;0.00
65574;PMS5003;52216;54.942;73.394;2022-08-21T14:41:39;1.00;1.00;0.00
65574;PMS5003;52216;54.942;73.394;2022-08-21T14:44:43;1.00;1.00;0.00
65574;PMS5003;52216;54.942;73.394;2022-08-21T14:47:46;2.00;2.00;0.00
65574;PMS5003;52216;54.942;73.394;2022-08-21T14:50:49;1.00;1.00;0.00
65574;PMS5003;52216;54.942;73.394;2022-08-21T14:53:57;1.00;1.00;0.00
65574;PMS5003;52216;54.942;73.394;2022-08-21T14:57:02;1.25;0.00;0.00
65574;PMS5003;52216;54.942;73.394;2022-08-21T15:00:06;1.00;0.00;0.00
65574;PMS5003;52216;54.942;73.394;2022-08-21T15:03:11;0.75;0.75;0.00
65574;PMS5003;52216;54.942;73.394;2022-08-21T15:06:15;0.00;0.00;0.00
65574;PMS5003;52216;54.942;73.394;2022-08-21T15:09:19;0.00;0.00;0.00
65574;PMS5003;52216;54.942;73.394;2022-08-21T15:12:23;1.00;0.00;0.00
65574;PMS5003;52216;54.942;73.394;2022-08-21T15:15:36;1.00;0.00;0.00
65574;PMS5003;52216;54.942;73.394;2022-08-21T15:18:41;0.00;0.00;0.00
65574;PMS5003;52216;54.942;73.394;2022-08-21T15:21:45;1.00;1.00;0.00
65574;PMS5003;52216;54.942;73.394;2022-08-21T15:24:48;1.00;1.00;0.00
65574;PMS5003;52216;54.942;73.394;2022-08-21T15:27:51;3.00;2.00;0.00
65574;PMS5003;52216;54.942;73.394;2022-08-21T15:30:54;2.00;2.00;0.00
65574;PMS5003;52216;54.942;73.394;2022-08-21T15:34:06;3.50;3.00;0.00
65574;PMS5003;52216;54.942;73.394;2022-08-21T15:37:14;4.00;4.00;0.00
65574;PMS5003;52216;54.942;73.394;2022-08-21T15:40:17;4.00;4.00;0.00
65574;PMS5003;52216;54.942;73.394;2022-08-21T15:43:31;3.00;2.00;0.00
65574;PMS5003;52216;54.942;73.394;2022-08-21T15:46:45;3.50;3.00;0.25
65574;PMS5003;52216;54.942;73.394;2022-08-21T15:49:48;3.00;2.75;1.00
65574;PMS5003;52216;54.942;73.394;2022-08-21T15:52:51;3.00;3.00;1.00
65574;PMS5003;52216;54.942;73.394;2022-08-21T15:55:54;2.50;2.50;1.00
65574;PMS5003;52216;54.942;73.394;2022-08-21T15:59:04;4.00;4.00;1.00
65574;PMS5003;52216;54.942;73.394;2022-08-21T16:02:13;4.00;3.00;0.75
65574;PMS5003;52216;54.942;73.394;2022-08-21T16:05:17;4.00;4.00;0.00
65574;PMS5003;52216;54.942;73.394;2022-08-21T16:08:21;3.00;3.00;0.00
65574;PMS5003;52216;54.942;73.394;2022-08-21T16:11:34;6.75;6.00;1.00
65574;PMS5003;52216;54.942;73.394;2022-08-21T16:14:37;6.00;6.00;2.00
65574;PMS5003;52216;54.942;73.394;2022-08-21T16:17:42;6.00;6.00;2.00
65574;PMS5003;52216;54.942;73.394;2022-08-21T16:20:50;5.00;5.00;3.00
65574;PMS5003;52216;54.942;73.394;2022-08-21T16:23:53;4.75;4.75;3.75
65574;PMS5003;52216;54.942;73.394;2022-08-21T16:26:56;5.00;5.00;3.50
65574;PMS5003;52216;54.942;73.394;2022-08-21T16:29:59;6.25;5.50;4.00
65574;PMS5003;52216;54.942;73.394;2022-08-21T16:33:02;5.25;5.25;3.00
65574;PMS5003;52216;54.942;73.394;2022-08-21T16:36:11;4.00;4.00;2.00
65574;PMS5003;52216;54.942;73.394;2022-08-21T16:39:14;6.00;6.00;2.00
65574;PMS5003;52216;54.942;73.394;2022-08-21T16:42:18;6.00;4.50;1.00
65574;PMS5003;52216;54.942;73.394;2022-08-21T16:45:23;5.50;5.50;1.75
65574;PMS5003;52216;54.942;73.394;2022-08-21T16:48:26;5.00;5.00;2.00
65574;PMS5003;52216;54.942;73.394;2022-08-21T16:51:36;5.00;4.00;1.00
65574;PMS5003;52216;54.942;73.394;2022-08-21T16:54:39;5.00;5.00;2.00
65574;PMS5003;52216;54.942;73.394;2022-08-21T16:57:46;4.00;3.00;1.00
65574;PMS5003;52216;54.942;73.394;2022-08-21T17:00:49;4.00;3.25;0.00
65574;PMS5003;52216;54.942;73.394;2022-08-21T17:04:02;5.00;4.00;0.00
65574;PMS5003;52216;54.942;73.394;2022-08-21T17:07:05;1.25;1.00;0.00
65574;PMS5003;52216;54.942;73.394;2022-08-21T17:10:09;3.25;2.25;0.00
65574;PMS5003;52216;54.942;73.394;2022-08-21T17:13:13;3.00;2.00;0.00
65574;PMS5003;52216;54.942;73.394;2022-08-21T17:16:17;2.00;2.00;0.00
65574;PMS5003;52216;54.942;73.394;2022-08-21T17:19:25;1.25;1.25;0.00
65574;PMS5003;52216;54.942;73.394;2022-08-21T17:22:28;1.00;1.00;0.00
65574;PMS5003;52216;54.942;73.394;2022-08-21T17:25:31;1.00;1.00;0.00
65574;PMS5003;52216;54.942;73.394;2022-08-21T17:28:34;0.00;0.00;0.00
65574;PMS5003;52216;54.942;73.394;2022-08-21T17:31:39;0.00;0.00;0.00
65574;PMS5003;52216;54.942;73.394;2022-08-21T17:34:43;0.00;0.00;0.00
65574;PMS5003;52216;54.942;73.394;2022-08-21T17:37:46;1.00;1.00;0.00
65574;PMS5003;52216;54.942;73.394;2022-08-21T17:40:49;0.00;0.00;0.00
65574;PMS5003;52216;54.942;73.394;2022-08-21T17:43:53;0.00;0.00;0.00
65574;PMS5003;52216;54.942;73.394;2022-08-21T17:46:57;0.00;0.00;0.00
65574;PMS5003;52216;54.942;73.394;2022-08-21T17:50:00;0.00;0.00;0.00
65574;PMS5003;52216;54.942;73.394;2022-08-21T17:53:03;0.00;0.00;0.00
65574;PMS5003;52216;54.942;73.394;2022-08-21T17:56:06;1.00;1.00;0.00
65574;PMS5003;52216;54.942;73.394;2022-08-21T17:59:14;2.00;1.25;0.00
65574;PMS5003;52216;54.942;73.394;2022-08-21T18:02:17;0.25;0.25;0.00
65574;PMS5003;52216;54.942;73.394;2022-08-21T18:05:26;1.00;0.00;0.00
65574;PMS5003;52216;54.942;73.394;2022-08-21T18:08:29;0.00;0.00;0.00
65574;PMS5003;52216;54.942;73.394;2022-08-21T18:11:33;0.00;0.00;0.00
65574;PMS5003;52216;54.942;73.394;2022-08-21T18:14:42;0.00;0.00;0.00
65574;PMS5003;52216;54.942;73.394;2022-08-21T18:17:47;1.00;0.00;0.00
65574;PMS5003;52216;54.942;73.394;2022-08-21T18:20:51;0.00;0.00;0.00
65574;PMS5003;52216;54.942;73.394;2022-08-21T18:23:54;0.00;0.00;0.00
65574;PMS5003;52216;54.942;73.394;2022-08-21T18:26:57;0.75;0.00;0.00
65574;PMS5003;52216;54.942;73.394;2022-08-21T18:30:01;0.00;0.00;0.00
65574;PMS5003;52216;54.942;73.394;2022-08-21T18:33:14;0.00;0.00;0.00
65574;PMS5003;52216;54.942;73.394;2022-08-21T18:36:19;0.00;0.00;0.00
65574;PMS5003;52216;54.942;73.394;2022-08-21T18:39:23;1.00;0.00;0.00
65574;PMS5003;52216;54.942;73.394;2022-08-21T18:42:26;1.00;0.00;0.00
65574;PMS5003;52216;54.942;73.394;2022-08-21T18:45:30;0.00;0.00;0.00
65574;PMS5003;52216;54.942;73.394;2022-08-21T18:48:33;0.00;0.00;0.00
65574;PMS5003;52216;54.942;73.394;2022-08-21T18:51:37;0.00;0.00;0.00
65574;PMS5003;52216;54.942;73.394;2022-08-21T18:54:50;0.00;0.00;0.00
65574;PMS5003;52216;54.942;73.394;2022-08-21T18:57:53;0.00;0.00;0.00
65574;PMS5003;52216;54.942;73.394;2022-08-21T19:00:56;0.00;0.00;0.00
65574;PMS5003;52216;54.942;73.394;2022-08-21T19:03:59;0.00;0.00;0.00
65574;PMS5003;52216;54.942;73.394;2022-08-21T19:07:02;0.00;0.00;0.00
65574;PMS5003;52216;54.942;73.394;2022-08-21T19:10:12;0.00;0.00;0.00
65574;PMS5003;52216;54.942;73.394;2022-08-21T19:13:16;0.00;0.00;0.00
65574;PMS5003;52216;54.942;73.394;2022-08-21T19:16:25;0.00;0.00;0.00
65574;PMS5003;52216;54.942;73.394;2022-08-21T19:19:39;0.00;0.00;0.00
65574;PMS5003;52216;54.942;73.394;2022-08-21T19:22:42;0.00;0.00;0.00